Hopwood, Pennsylvania
Current Conditions -  °F | °C
As of 12:44 PM on Tuesday 21 Oct 2014 (Local Time) from KMGW Reporting Station
Light Rain Light Rain  
Wind Chill: 53°   Ceiling: 1300
Heat Index: 53°   Visibility: 2.5mi
Dew Point: 48°   Wind: 3mph
Humidity: 83%   Direction: 260°W
Pressure: 29.89"   Gusts: NA
Location:  39.88°N, 79.7°W
Report Text: KMGW 211644Z 26003KT 2 1/2SM -RA OVC013 12/09 A2989 RMK AO2 P0001 T01170089
Loading
Personal Weather Stations






























Interactive Weather Map
Tropical Storm Tracking
New forecast layout! Learn more

10-Day Weather Forecast

Advertisements
Track Severe Weather on mobile